Colorado Springs, CO

5:43 AM MDT on October 23, 2014 (GMT -0600)
Old North End | Change Station
CLOSE
Current Station
Personal Weather Station
Location: Colorado Springs, CO
Elevation: 6086 ft
Nearby Weather Stations

Elev 6086 ft 38.85 °N, 104.82 °W | Updated 1 second ago

Partly Cloudy
Partly Cloudy
41.5 °F
Feels Like 42 °F
N
0.0
Wind Variable Wind from South
Gusts 0.0 mph

Today
High -- | Low -- °F
--% Chance of Precip.
Yesterday
High -- | Low -- °F
Precip. -- in
7:16 AM 6:09 PM
Waning Crescent, 0% visible
Pressure 30.09 in
Visibility 10.0 miles
Clouds Scattered Clouds 25000 ft
Windchill 42 °F
Dew Point 39 °F
Humidity 90%
Rainfall 0.00 in
Snow Depth 1 in
UV 0 out of 12
Pollen 2.50 out of 12
Air Quality Not available.
Flu Activity Sporadic
METAR KCOS 231054Z 02009KT 10SM SCT250 06/03 A3020 RMK AO2 SLP187 T00560033

More Conditions Fewer Conditions

Pressure 30.09 in
Visibility 10.0 miles
Clouds Scattered Clouds 25000 ft
Windchill 42 °F
Dew Point 39 °F
Humidity 90%
Rainfall 0.00 in
Snow Depth 1 in
UV 0 out of 12
Pollen 2.50 out of 12
Air Quality Not available.
Flu Activity Sporadic
METAR KCOS 231054Z 02009KT 10SM SCT250 06/03 A3020 RMK AO2 SLP187 T00560033

More Conditions Fewer Conditions

10-Day Weather Forecast

Almanac

Astronomy

Oct. 23, 2014 Rise Set
Actual Time 7:16 AM MDT 6:09 PM MDT
Civil Twilight 6:49 AM MDT 6:36 PM MDT
Nautical Twilight 6:18 AM MDT 7:07 PM MDT
Astronomical Twilight 5:47 AM MDT 7:38 PM MDT
Moon 6:59 AM MDT 6:12 PM MDT
Length of Visible Light 11h 47m
Length of Day
10h 52m
Tomorrow will be 2m 20s shorter.
Waning Crescent, 0% of the Moon is Illuminated
Today
Waning Crescent
Oct 23
New
Oct 30
First Quarter
Nov 6
Full
Nov 14
Last Quarter

Today's Extremes

State Highs State Lows

Community

WunderPhotos

Upload Photos

1,764,209 photos uploaded!

Nearby

Air Quality

  Air Quality AQ Index Pollutant
Yesterday Good
OZONE
Yesterday Good
PM2.5
Thursday Good
PM2.5
Thursday Good
OZONE

Snow Depth

Station Depth Elevation
Glen Cove 1 in 11460 ft
Echo Lake 0 in 10600 ft
South Colony 0 in 10800 ft
Michigan Creek 0 in 10600 ft
Jackwhacker Gulch 1 in 10960 ft

Earthquake Activity

City Distance Mag. Time & Date
Trinidad, Colorado 121 miles 2.7 10:33 PM MDT
2014-10-20
Minimum magnitude displayed is 2.5.

Coastal Water Temperatures

Place Temperature
No Stations Reporting

Nearby Weather Stations